sensor_id;sensor_type;location;lat;lon;timestamp;temperature;humidity
4374;DHT22;2201;51.100;6.814;2023-11-21T00:02:05;8.70;98.20
4374;DHT22;2201;51.100;6.814;2023-11-21T00:04:32;8.70;98.20
4374;DHT22;2201;51.100;6.814;2023-11-21T00:06:59;8.70;98.20
4374;DHT22;2201;51.100;6.814;2023-11-21T00:09:27;8.60;98.20
4374;DHT22;2201;51.100;6.814;2023-11-21T00:11:54;8.60;98.20
4374;DHT22;2201;51.100;6.814;2023-11-21T00:14:20;8.60;98.20
4374;DHT22;2201;51.100;6.814;2023-11-21T00:16:47;8.60;98.20
4374;DHT22;2201;51.100;6.814;2023-11-21T00:19:14;8.60;98.20
4374;DHT22;2201;51.100;6.814;2023-11-21T00:21:42;8.70;98.20
4374;DHT22;2201;51.100;6.814;2023-11-21T00:24:09;8.70;98.20
4374;DHT22;2201;51.100;6.814;2023-11-21T00:26:40;8.70;98.20
4374;DHT22;2201;51.100;6.814;2023-11-21T00:29:07;8.80;98.20
4374;DHT22;2201;51.100;6.814;2023-11-21T00:31:34;8.80;98.20
4374;DHT22;2201;51.100;6.814;2023-11-21T00:34:02;8.80;98.20
4374;DHT22;2201;51.100;6.814;2023-11-21T00:36:29;8.80;98.20
4374;DHT22;2201;51.100;6.814;2023-11-21T00:38:56;8.80;98.20
4374;DHT22;2201;51.100;6.814;2023-11-21T00:41:23;8.80;98.20
4374;DHT22;2201;51.100;6.814;2023-11-21T00:43:51;8.80;98.20
4374;DHT22;2201;51.100;6.814;2023-11-21T00:46:18;8.80;98.20
4374;DHT22;2201;51.100;6.814;2023-11-21T00:48:44;8.80;98.20
4374;DHT22;2201;51.100;6.814;2023-11-21T00:51:11;8.80;98.20
4374;DHT22;2201;51.100;6.814;2023-11-21T00:53:38;8.80;98.20
4374;DHT22;2201;51.100;6.814;2023-11-21T00:56:05;8.70;98.20
4374;DHT22;2201;51.100;6.814;2023-11-21T00:58:34;8.70;98.20
4374;DHT22;2201;51.100;6.814;2023-11-21T01:01:02;8.70;98.20
4374;DHT22;2201;51.100;6.814;2023-11-21T01:03:29;8.70;98.20
4374;DHT22;2201;51.100;6.814;2023-11-21T01:05:56;8.70;98.20
4374;DHT22;2201;51.100;6.814;2023-11-21T01:08:22;8.70;98.20
4374;DHT22;2201;51.100;6.814;2023-11-21T01:10:50;8.70;98.20
4374;DHT22;2201;51.100;6.814;2023-11-21T01:13:17;8.70;98.20
4374;DHT22;2201;51.100;6.814;2023-11-21T01:15:44;8.70;98.20
4374;DHT22;2201;51.100;6.814;2023-11-21T01:18:12;8.70;98.20
4374;DHT22;2201;51.100;6.814;2023-11-21T01:20:39;8.70;98.20
4374;DHT22;2201;51.100;6.814;2023-11-21T01:23:06;8.70;98.20
4374;DHT22;2201;51.100;6.814;2023-11-21T01:25:33;8.70;98.20
4374;DHT22;2201;51.100;6.814;2023-11-21T01:28:00;8.70;98.20
4374;DHT22;2201;51.100;6.814;2023-11-21T01:30:27;8.70;98.20
4374;DHT22;2201;51.100;6.814;2023-11-21T01:32:53;8.70;98.20
4374;DHT22;2201;51.100;6.814;2023-11-21T01:35:21;8.70;98.20
4374;DHT22;2201;51.100;6.814;2023-11-21T01:37:48;8.70;98.20
4374;DHT22;2201;51.100;6.814;2023-11-21T01:40:15;8.70;98.20
4374;DHT22;2201;51.100;6.814;2023-11-21T01:42:42;8.60;98.20
4374;DHT22;2201;51.100;6.814;2023-11-21T01:45:10;8.60;98.20
4374;DHT22;2201;51.100;6.814;2023-11-21T01:47:38;8.60;98.20
4374;DHT22;2201;51.100;6.814;2023-11-21T01:50:07;8.50;98.20
4374;DHT22;2201;51.100;6.814;2023-11-21T01:52:35;8.50;98.20
4374;DHT22;2201;51.100;6.814;2023-11-21T01:55:03;8.40;98.20
4374;DHT22;2201;51.100;6.814;2023-11-21T01:57:31;8.40;98.20
4374;DHT22;2201;51.100;6.814;2023-11-21T01:59:58;8.30;98.20
4374;DHT22;2201;51.100;6.814;2023-11-21T02:02:36;8.30;98.20
4374;DHT22;2201;51.100;6.814;2023-11-21T02:05:03;8.20;98.20
4374;DHT22;2201;51.100;6.814;2023-11-21T02:07:30;8.20;98.20
4374;DHT22;2201;51.100;6.814;2023-11-21T02:09:59;8.20;98.20
4374;DHT22;2201;51.100;6.814;2023-11-21T02:12:26;8.20;98.20
4374;DHT22;2201;51.100;6.814;2023-11-21T02:14:53;8.20;98.20
4374;DHT22;2201;51.100;6.814;2023-11-21T02:17:21;8.20;98.20
4374;DHT22;2201;51.100;6.814;2023-11-21T02:19:48;8.20;98.20
4374;DHT22;2201;51.100;6.814;2023-11-21T02:22:17;8.30;98.20
4374;DHT22;2201;51.100;6.814;2023-11-21T02:24:47;8.30;98.20
4374;DHT22;2201;51.100;6.814;2023-11-21T02:27:13;8.30;98.20
4374;DHT22;2201;51.100;6.814;2023-11-21T02:29:46;8.30;98.20
4374;DHT22;2201;51.100;6.814;2023-11-21T02:32:13;8.30;98.20
4374;DHT22;2201;51.100;6.814;2023-11-21T02:34:40;8.40;98.20
4374;DHT22;2201;51.100;6.814;2023-11-21T02:37:08;8.40;98.20
4374;DHT22;2201;51.100;6.814;2023-11-21T02:39:35;8.40;98.20
4374;DHT22;2201;51.100;6.814;2023-11-21T02:42:05;8.40;98.20
4374;DHT22;2201;51.100;6.814;2023-11-21T02:44:32;8.50;98.20
4374;DHT22;2201;51.100;6.814;2023-11-21T02:46:58;8.50;98.20
4374;DHT22;2201;51.100;6.814;2023-11-21T02:49:25;8.50;98.20
4374;DHT22;2201;51.100;6.814;2023-11-21T02:51:53;8.50;98.20
4374;DHT22;2201;51.100;6.814;2023-11-21T02:54:21;8.50;98.20
4374;DHT22;2201;51.100;6.814;2023-11-21T02:56:48;8.50;98.20
4374;DHT22;2201;51.100;6.814;2023-11-21T02:59:17;8.50;98.20
4374;DHT22;2201;51.100;6.814;2023-11-21T03:01:44;8.50;98.20
4374;DHT22;2201;51.100;6.814;2023-11-21T03:04:11;8.60;98.20
4374;DHT22;2201;51.100;6.814;2023-11-21T03:06:43;8.60;98.20
4374;DHT22;2201;51.100;6.814;2023-11-21T03:09:09;8.60;98.20
4374;DHT22;2201;51.100;6.814;2023-11-21T03:11:37;8.60;98.20
4374;DHT22;2201;51.100;6.814;2023-11-21T03:14:04;8.60;98.20
4374;DHT22;2201;51.100;6.814;2023-11-21T03:16:33;8.60;98.20
4374;DHT22;2201;51.100;6.814;2023-11-21T03:19:00;8.60;98.20
4374;DHT22;2201;51.100;6.814;2023-11-21T03:21:27;8.70;98.20
4374;DHT22;2201;51.100;6.814;2023-11-21T03:23:54;8.70;98.20
4374;DHT22;2201;51.100;6.814;2023-11-21T03:26:21;8.70;98.20
4374;DHT22;2201;51.100;6.814;2023-11-21T03:28:48;8.70;98.20
4374;DHT22;2201;51.100;6.814;2023-11-21T03:31:15;8.70;98.20
4374;DHT22;2201;51.100;6.814;2023-11-21T03:33:45;8.70;98.20
4374;DHT22;2201;51.100;6.814;2023-11-21T03:36:12;8.70;98.20
4374;DHT22;2201;51.100;6.814;2023-11-21T03:38:40;8.70;98.20
4374;DHT22;2201;51.100;6.814;2023-11-21T03:41:07;8.80;98.20
4374;DHT22;2201;51.100;6.814;2023-11-21T03:43:35;8.80;98.20
4374;DHT22;2201;51.100;6.814;2023-11-21T03:46:02;8.80;98.20
4374;DHT22;2201;51.100;6.814;2023-11-21T03:48:29;8.80;98.20
4374;DHT22;2201;51.100;6.814;2023-11-21T03:50:57;8.80;98.20
4374;DHT22;2201;51.100;6.814;2023-11-21T03:53:24;8.80;98.20
4374;DHT22;2201;51.100;6.814;2023-11-21T03:55:51;8.80;98.20
4374;DHT22;2201;51.100;6.814;2023-11-21T03:58:17;8.80;98.20
4374;DHT22;2201;51.100;6.814;2023-11-21T04:00:44;8.80;98.20
4374;DHT22;2201;51.100;6.814;2023-11-21T04:03:11;8.70;98.20
4374;DHT22;2201;51.100;6.814;2023-11-21T04:05:39;8.80;98.20
4374;DHT22;2201;51.100;6.814;2023-11-21T04:08:08;8.80;98.20
4374;DHT22;2201;51.100;6.814;2023-11-21T04:10:34;8.80;98.20
4374;DHT22;2201;51.100;6.814;2023-11-21T04:13:01;8.80;98.20
4374;DHT22;2201;51.100;6.814;2023-11-21T04:15:28;8.80;98.20
4374;DHT22;2201;51.100;6.814;2023-11-21T04:17:55;8.80;98.20
4374;DHT22;2201;51.100;6.814;2023-11-21T04:20:22;8.80;98.20
4374;DHT22;2201;51.100;6.814;2023-11-21T04:22:49;8.80;98.20
4374;DHT22;2201;51.100;6.814;2023-11-21T04:25:17;8.80;98.20
4374;DHT22;2201;51.100;6.814;2023-11-21T04:27:45;8.80;98.20
4374;DHT22;2201;51.100;6.814;2023-11-21T04:30:12;8.80;98.20
4374;DHT22;2201;51.100;6.814;2023-11-21T04:32:39;8.70;98.20
4374;DHT22;2201;51.100;6.814;2023-11-21T04:35:08;8.70;98.20
4374;DHT22;2201;51.100;6.814;2023-11-21T04:37:35;8.70;98.20
4374;DHT22;2201;51.100;6.814;2023-11-21T04:40:02;8.70;98.20
4374;DHT22;2201;51.100;6.814;2023-11-21T04:42:34;8.70;98.20
4374;DHT22;2201;51.100;6.814;2023-11-21T04:45:01;8.70;98.20
4374;DHT22;2201;51.100;6.814;2023-11-21T04:47:30;8.70;98.20
4374;DHT22;2201;51.100;6.814;2023-11-21T04:49:57;8.70;98.20
4374;DHT22;2201;51.100;6.814;2023-11-21T04:52:24;8.70;98.20
4374;DHT22;2201;51.100;6.814;2023-11-21T04:54:51;8.70;98.20
4374;DHT22;2201;51.100;6.814;2023-11-21T04:57:19;8.70;98.20
4374;DHT22;2201;51.100;6.814;2023-11-21T04:59:48;8.70;98.20
4374;DHT22;2201;51.100;6.814;2023-11-21T05:02:15;8.70;98.20
4374;DHT22;2201;51.100;6.814;2023-11-21T05:04:44;8.70;98.20
4374;DHT22;2201;51.100;6.814;2023-11-21T05:07:10;8.70;98.20
4374;DHT22;2201;51.100;6.814;2023-11-21T05:09:41;8.70;98.20
4374;DHT22;2201;51.100;6.814;2023-11-21T05:12:09;8.70;98.20
4374;DHT22;2201;51.100;6.814;2023-11-21T05:14:36;8.70;98.20
4374;DHT22;2201;51.100;6.814;2023-11-21T05:17:04;8.70;98.20
4374;DHT22;2201;51.100;6.814;2023-11-21T05:19:33;8.70;98.20
4374;DHT22;2201;51.100;6.814;2023-11-21T05:22:01;8.70;98.20
4374;DHT22;2201;51.100;6.814;2023-11-21T05:24:27;8.70;98.20
4374;DHT22;2201;51.100;6.814;2023-11-21T05:26:54;8.70;98.20
4374;DHT22;2201;51.100;6.814;2023-11-21T05:29:22;8.60;98.20
4374;DHT22;2201;51.100;6.814;2023-11-21T05:31:51;8.60;98.20
4374;DHT22;2201;51.100;6.814;2023-11-21T05:34:19;8.60;98.20
4374;DHT22;2201;51.100;6.814;2023-11-21T05:37:03;8.60;98.20
4374;DHT22;2201;51.100;6.814;2023-11-21T05:39:31;8.60;98.20
4374;DHT22;2201;51.100;6.814;2023-11-21T05:41:58;8.60;98.20
4374;DHT22;2201;51.100;6.814;2023-11-21T05:44:25;8.60;98.20
4374;DHT22;2201;51.100;6.814;2023-11-21T05:46:52;8.60;98.20
4374;DHT22;2201;51.100;6.814;2023-11-21T05:49:21;8.60;98.20
4374;DHT22;2201;51.100;6.814;2023-11-21T05:51:48;8.60;98.20
4374;DHT22;2201;51.100;6.814;2023-11-21T05:54:20;8.60;98.20
4374;DHT22;2201;51.100;6.814;2023-11-21T05:56:49;8.60;98.20
4374;DHT22;2201;51.100;6.814;2023-11-21T05:59:16;8.60;98.20
4374;DHT22;2201;51.100;6.814;2023-11-21T06:01:43;8.60;98.20
4374;DHT22;2201;51.100;6.814;2023-11-21T06:04:11;8.60;98.20
4374;DHT22;2201;51.100;6.814;2023-11-21T06:06:39;8.50;98.20
4374;DHT22;2201;51.100;6.814;2023-11-21T06:09:06;8.50;98.20
4374;DHT22;2201;51.100;6.814;2023-11-21T06:11:34;8.50;98.20
4374;DHT22;2201;51.100;6.814;2023-11-21T06:14:02;8.50;98.20
4374;DHT22;2201;51.100;6.814;2023-11-21T06:16:29;8.50;98.20
4374;DHT22;2201;51.100;6.814;2023-11-21T06:18:56;8.50;98.20
4374;DHT22;2201;51.100;6.814;2023-11-21T06:21:23;8.50;98.20
4374;DHT22;2201;51.100;6.814;2023-11-21T06:23:51;8.60;98.20
4374;DHT22;2201;51.100;6.814;2023-11-21T06:26:18;8.60;98.20
4374;DHT22;2201;51.100;6.814;2023-11-21T06:28:46;8.60;98.20
4374;DHT22;2201;51.100;6.814;2023-11-21T06:31:12;8.60;98.20
4374;DHT22;2201;51.100;6.814;2023-11-21T06:33:40;8.60;98.20
4374;DHT22;2201;51.100;6.814;2023-11-21T06:36:08;8.60;98.20
4374;DHT22;2201;51.100;6.814;2023-11-21T06:38:41;8.60;98.20
4374;DHT22;2201;51.100;6.814;2023-11-21T06:41:11;8.60;98.20
4374;DHT22;2201;51.100;6.814;2023-11-21T06:43:41;8.60;98.20
4374;DHT22;2201;51.100;6.814;2023-11-21T06:46:12;8.70;98.20
4374;DHT22;2201;51.100;6.814;2023-11-21T06:48:40;8.70;98.20
4374;DHT22;2201;51.100;6.814;2023-11-21T06:51:07;8.70;98.20
4374;DHT22;2201;51.100;6.814;2023-11-21T06:53:33;8.70;98.20
4374;DHT22;2201;51.100;6.814;2023-11-21T06:56:00;8.70;98.20
4374;DHT22;2201;51.100;6.814;2023-11-21T06:58:28;8.70;98.20
4374;DHT22;2201;51.100;6.814;2023-11-21T07:00:55;8.80;98.20
4374;DHT22;2201;51.100;6.814;2023-11-21T07:03:24;8.80;98.20
4374;DHT22;2201;51.100;6.814;2023-11-21T07:05:51;8.80;98.20
4374;DHT22;2201;51.100;6.814;2023-11-21T07:08:18;8.80;98.20
4374;DHT22;2201;51.100;6.814;2023-11-21T07:10:45;8.80;98.20
4374;DHT22;2201;51.100;6.814;2023-11-21T07:13:12;8.80;98.20
4374;DHT22;2201;51.100;6.814;2023-11-21T07:15:40;8.80;98.20
4374;DHT22;2201;51.100;6.814;2023-11-21T07:18:07;8.90;98.20
4374;DHT22;2201;51.100;6.814;2023-11-21T07:20:34;8.90;98.20
4374;DHT22;2201;51.100;6.814;2023-11-21T07:23:01;8.90;98.20
4374;DHT22;2201;51.100;6.814;2023-11-21T07:25:29;8.90;98.20
4374;DHT22;2201;51.100;6.814;2023-11-21T07:27:56;9.00;98.20
4374;DHT22;2201;51.100;6.814;2023-11-21T07:30:22;9.00;98.20
4374;DHT22;2201;51.100;6.814;2023-11-21T07:32:51;9.00;98.20
4374;DHT22;2201;51.100;6.814;2023-11-21T07:35:17;9.00;98.20
4374;DHT22;2201;51.100;6.814;2023-11-21T07:37:44;9.00;98.20
4374;DHT22;2201;51.100;6.814;2023-11-21T07:40:13;9.10;98.20
4374;DHT22;2201;51.100;6.814;2023-11-21T07:42:40;9.10;98.20
4374;DHT22;2201;51.100;6.814;2023-11-21T07:45:08;9.10;98.20
4374;DHT22;2201;51.100;6.814;2023-11-21T07:47:35;9.10;98.20
4374;DHT22;2201;51.100;6.814;2023-11-21T07:50:04;9.10;98.20
4374;DHT22;2201;51.100;6.814;2023-11-21T07:52:32;9.10;98.20
4374;DHT22;2201;51.100;6.814;2023-11-21T07:54:59;9.20;98.20
4374;DHT22;2201;51.100;6.814;2023-11-21T07:57:27;9.20;98.20
4374;DHT22;2201;51.100;6.814;2023-11-21T07:59:54;9.20;98.20
4374;DHT22;2201;51.100;6.814;2023-11-21T08:02:21;9.30;98.20
4374;DHT22;2201;51.100;6.814;2023-11-21T08:04:48;9.30;98.20
4374;DHT22;2201;51.100;6.814;2023-11-21T08:07:17;9.30;98.20
4374;DHT22;2201;51.100;6.814;2023-11-21T08:09:44;9.40;98.20
4374;DHT22;2201;51.100;6.814;2023-11-21T08:12:12;9.40;98.20
4374;DHT22;2201;51.100;6.814;2023-11-21T08:14:40;9.40;98.20
4374;DHT22;2201;51.100;6.814;2023-11-21T08:17:08;9.50;98.20
4374;DHT22;2201;51.100;6.814;2023-11-21T08:19:35;9.50;98.20
4374;DHT22;2201;51.100;6.814;2023-11-21T08:22:03;9.50;98.20
4374;DHT22;2201;51.100;6.814;2023-11-21T08:24:31;9.50;98.20
4374;DHT22;2201;51.100;6.814;2023-11-21T08:26:58;9.50;98.20
4374;DHT22;2201;51.100;6.814;2023-11-21T08:29:24;9.50;98.20
4374;DHT22;2201;51.100;6.814;2023-11-21T08:31:52;9.50;98.20
4374;DHT22;2201;51.100;6.814;2023-11-21T08:34:19;9.50;98.20
4374;DHT22;2201;51.100;6.814;2023-11-21T08:36:46;9.50;98.20
4374;DHT22;2201;51.100;6.814;2023-11-21T08:39:13;9.50;98.20
4374;DHT22;2201;51.100;6.814;2023-11-21T08:41:43;9.50;98.20
4374;DHT22;2201;51.100;6.814;2023-11-21T08:44:10;9.50;98.20
4374;DHT22;2201;51.100;6.814;2023-11-21T08:46:36;9.50;98.20
4374;DHT22;2201;51.100;6.814;2023-11-21T08:49:04;9.60;98.20
4374;DHT22;2201;51.100;6.814;2023-11-21T08:51:31;9.60;98.20
4374;DHT22;2201;51.100;6.814;2023-11-21T08:53:58;9.60;98.20
4374;DHT22;2201;51.100;6.814;2023-11-21T08:56:27;9.60;98.20
4374;DHT22;2201;51.100;6.814;2023-11-21T08:58:55;9.70;98.20
4374;DHT22;2201;51.100;6.814;2023-11-21T09:01:22;9.70;98.20
4374;DHT22;2201;51.100;6.814;2023-11-21T09:03:50;9.70;98.20
4374;DHT22;2201;51.100;6.814;2023-11-21T09:06:17;9.70;98.20
4374;DHT22;2201;51.100;6.814;2023-11-21T09:08:45;9.70;98.20
4374;DHT22;2201;51.100;6.814;2023-11-21T09:11:12;9.70;98.20
4374;DHT22;2201;51.100;6.814;2023-11-21T09:13:39;9.80;98.20
4374;DHT22;2201;51.100;6.814;2023-11-21T09:16:08;9.80;98.20
4374;DHT22;2201;51.100;6.814;2023-11-21T09:18:36;9.90;98.20
4374;DHT22;2201;51.100;6.814;2023-11-21T09:21:04;9.90;98.20
4374;DHT22;2201;51.100;6.814;2023-11-21T09:23:31;9.90;98.20
4374;DHT22;2201;51.100;6.814;2023-11-21T09:25:59;9.90;98.20
4374;DHT22;2201;51.100;6.814;2023-11-21T09:28:26;9.90;98.20
4374;DHT22;2201;51.100;6.814;2023-11-21T09:30:54;10.00;98.20
4374;DHT22;2201;51.100;6.814;2023-11-21T09:33:22;10.00;98.20
4374;DHT22;2201;51.100;6.814;2023-11-21T09:35:51;10.00;98.20
4374;DHT22;2201;51.100;6.814;2023-11-21T09:38:18;10.00;98.20
4374;DHT22;2201;51.100;6.814;2023-11-21T09:40:45;10.00;98.20
4374;DHT22;2201;51.100;6.814;2023-11-21T09:43:16;10.10;98.20
4374;DHT22;2201;51.100;6.814;2023-11-21T09:45:46;10.00;98.20
4374;DHT22;2201;51.100;6.814;2023-11-21T09:48:17;10.10;98.20
4374;DHT22;2201;51.100;6.814;2023-11-21T09:50:47;10.10;98.20
4374;DHT22;2201;51.100;6.814;2023-11-21T09:53:17;10.10;98.20
4374;DHT22;2201;51.100;6.814;2023-11-21T09:55:48;10.20;98.20
4374;DHT22;2201;51.100;6.814;2023-11-21T09:58:17;10.20;98.20
4374;DHT22;2201;51.100;6.814;2023-11-21T10:00:48;10.30;98.20
4374;DHT22;2201;51.100;6.814;2023-11-21T10:03:16;10.30;98.20
4374;DHT22;2201;51.100;6.814;2023-11-21T10:05:43;10.30;98.20
4374;DHT22;2201;51.100;6.814;2023-11-21T10:08:13;10.40;98.20
4374;DHT22;2201;51.100;6.814;2023-11-21T10:10:44;10.50;98.20
4374;DHT22;2201;51.100;6.814;2023-11-21T10:13:12;10.50;98.20
4374;DHT22;2201;51.100;6.814;2023-11-21T10:15:42;10.50;98.20
4374;DHT22;2201;51.100;6.814;2023-11-21T10:18:14;10.50;98.20
4374;DHT22;2201;51.100;6.814;2023-11-21T10:20:42;10.60;98.20
4374;DHT22;2201;51.100;6.814;2023-11-21T10:23:13;10.60;98.20
4374;DHT22;2201;51.100;6.814;2023-11-21T10:25:42;10.60;98.20
4374;DHT22;2201;51.100;6.814;2023-11-21T10:28:10;10.60;98.20
4374;DHT22;2201;51.100;6.814;2023-11-21T10:30:38;10.60;98.20
4374;DHT22;2201;51.100;6.814;2023-11-21T10:33:07;10.70;98.20
4374;DHT22;2201;51.100;6.814;2023-11-21T10:35:52;10.70;98.20
4374;DHT22;2201;51.100;6.814;2023-11-21T10:38:22;10.70;98.20
4374;DHT22;2201;51.100;6.814;2023-11-21T10:40:50;10.70;98.20
4374;DHT22;2201;51.100;6.814;2023-11-21T10:43:18;10.70;98.20
4374;DHT22;2201;51.100;6.814;2023-11-21T10:45:45;10.70;98.20
4374;DHT22;2201;51.100;6.814;2023-11-21T10:48:14;10.70;98.20
4374;DHT22;2201;51.100;6.814;2023-11-21T10:50:42;10.70;98.20
4374;DHT22;2201;51.100;6.814;2023-11-21T10:53:11;10.70;98.20
4374;DHT22;2201;51.100;6.814;2023-11-21T10:55:40;10.70;98.20
4374;DHT22;2201;51.100;6.814;2023-11-21T10:58:11;10.70;98.20
4374;DHT22;2201;51.100;6.814;2023-11-21T11:00:40;10.70;98.20
4374;DHT22;2201;51.100;6.814;2023-11-21T11:03:09;10.70;98.20
4374;DHT22;2201;51.100;6.814;2023-11-21T11:05:40;10.70;98.20
4374;DHT22;2201;51.100;6.814;2023-11-21T11:08:08;10.70;98.20
4374;DHT22;2201;51.100;6.814;2023-11-21T11:10:40;10.70;98.20
4374;DHT22;2201;51.100;6.814;2023-11-21T11:13:07;10.80;98.20
4374;DHT22;2201;51.100;6.814;2023-11-21T11:15:34;10.80;98.20
4374;DHT22;2201;51.100;6.814;2023-11-21T11:18:02;10.90;98.20
4374;DHT22;2201;51.100;6.814;2023-11-21T11:20:34;10.90;98.20
4374;DHT22;2201;51.100;6.814;2023-11-21T11:23:19;11.00;98.20
4374;DHT22;2201;51.100;6.814;2023-11-21T11:26:04;10.90;98.20
4374;DHT22;2201;51.100;6.814;2023-11-21T11:28:44;11.00;98.20
4374;DHT22;2201;51.100;6.814;2023-11-21T11:31:21;11.00;98.20
4374;DHT22;2201;51.100;6.814;2023-11-21T11:33:58;11.00;98.20
4374;DHT22;2201;51.100;6.814;2023-11-21T11:36:29;11.00;98.20
4374;DHT22;2201;51.100;6.814;2023-11-21T11:38:58;11.00;98.20
4374;DHT22;2201;51.100;6.814;2023-11-21T11:41:30;11.00;98.20
4374;DHT22;2201;51.100;6.814;2023-11-21T11:44:00;11.00;98.20
4374;DHT22;2201;51.100;6.814;2023-11-21T11:46:43;11.10;98.20
4374;DHT22;2201;51.100;6.814;2023-11-21T11:49:23;11.10;98.20
4374;DHT22;2201;51.100;6.814;2023-11-21T11:54:54;11.10;98.20
4374;DHT22;2201;51.100;6.814;2023-11-21T11:57:25;11.00;98.20
4374;DHT22;2201;51.100;6.814;2023-11-21T12:00:13;11.00;98.20
4374;DHT22;2201;51.100;6.814;2023-11-21T12:02:47;11.00;98.20
4374;DHT22;2201;51.100;6.814;2023-11-21T12:05:15;11.00;98.20
4374;DHT22;2201;51.100;6.814;2023-11-21T12:07:49;11.00;98.20
4374;DHT22;2201;51.100;6.814;2023-11-21T12:10:22;11.10;98.20
4374;DHT22;2201;51.100;6.814;2023-11-21T12:12:53;11.10;98.20
4374;DHT22;2201;51.100;6.814;2023-11-21T12:15:27;11.10;98.20
4374;DHT22;2201;51.100;6.814;2023-11-21T12:18:03;11.20;98.20
4374;DHT22;2201;51.100;6.814;2023-11-21T12:20:31;11.20;98.20
4374;DHT22;2201;51.100;6.814;2023-11-21T12:23:05;11.30;98.20
4374;DHT22;2201;51.100;6.814;2023-11-21T12:25:34;11.40;98.20
4374;DHT22;2201;51.100;6.814;2023-11-21T12:28:04;11.40;98.20
4374;DHT22;2201;51.100;6.814;2023-11-21T12:30:33;11.40;98.20
4374;DHT22;2201;51.100;6.814;2023-11-21T12:33:02;11.50;98.20
4374;DHT22;2201;51.100;6.814;2023-11-21T12:35:32;11.50;98.20
4374;DHT22;2201;51.100;6.814;2023-11-21T12:38:01;11.50;98.20
4374;DHT22;2201;51.100;6.814;2023-11-21T12:40:29;11.60;98.20
4374;DHT22;2201;51.100;6.814;2023-11-21T12:42:57;11.60;98.20
4374;DHT22;2201;51.100;6.814;2023-11-21T12:45:26;11.60;98.20
4374;DHT22;2201;51.100;6.814;2023-11-21T12:47:55;11.60;98.20
4374;DHT22;2201;51.100;6.814;2023-11-21T12:50:25;11.50;98.20
4374;DHT22;2201;51.100;6.814;2023-11-21T12:52:58;11.50;98.20
4374;DHT22;2201;51.100;6.814;2023-11-21T12:55:25;11.60;98.20
4374;DHT22;2201;51.100;6.814;2023-11-21T12:57:53;11.60;98.20
4374;DHT22;2201;51.100;6.814;2023-11-21T13:00:30;11.70;98.20
4374;DHT22;2201;51.100;6.814;2023-11-21T13:02:58;11.70;98.20
4374;DHT22;2201;51.100;6.814;2023-11-21T13:05:27;11.80;98.20
4374;DHT22;2201;51.100;6.814;2023-11-21T13:07:57;11.80;98.20
4374;DHT22;2201;51.100;6.814;2023-11-21T13:10:26;11.90;98.20
4374;DHT22;2201;51.100;6.814;2023-11-21T13:12:56;11.80;98.20
4374;DHT22;2201;51.100;6.814;2023-11-21T13:15:25;11.80;98.20
4374;DHT22;2201;51.100;6.814;2023-11-21T13:17:54;11.80;98.20
4374;DHT22;2201;51.100;6.814;2023-11-21T13:20:23;11.90;98.20
4374;DHT22;2201;51.100;6.814;2023-11-21T13:22:50;11.90;98.20
4374;DHT22;2201;51.100;6.814;2023-11-21T13:25:20;11.80;98.20
4374;DHT22;2201;51.100;6.814;2023-11-21T13:27:47;11.80;98.20
4374;DHT22;2201;51.100;6.814;2023-11-21T13:30:14;11.80;98.20
4374;DHT22;2201;51.100;6.814;2023-11-21T13:32:42;11.80;98.20
4374;DHT22;2201;51.100;6.814;2023-11-21T13:35:11;11.80;98.20
4374;DHT22;2201;51.100;6.814;2023-11-21T13:37:48;11.80;98.20
4374;DHT22;2201;51.100;6.814;2023-11-21T13:40:19;11.80;98.20
4374;DHT22;2201;51.100;6.814;2023-11-21T13:42:49;11.70;98.20
4374;DHT22;2201;51.100;6.814;2023-11-21T13:45:19;11.70;98.20
4374;DHT22;2201;51.100;6.814;2023-11-21T13:47:47;11.70;98.20
4374;DHT22;2201;51.100;6.814;2023-11-21T13:50:18;11.70;98.20
4374;DHT22;2201;51.100;6.814;2023-11-21T13:52:49;11.60;98.20
4374;DHT22;2201;51.100;6.814;2023-11-21T13:55:18;11.60;98.20
4374;DHT22;2201;51.100;6.814;2023-11-21T13:57:46;11.60;98.20
4374;DHT22;2201;51.100;6.814;2023-11-21T14:00:16;11.60;98.20
4374;DHT22;2201;51.100;6.814;2023-11-21T14:02:57;11.60;98.20
4374;DHT22;2201;51.100;6.814;2023-11-21T14:05:27;11.60;98.20
4374;DHT22;2201;51.100;6.814;2023-11-21T14:07:57;11.70;98.20
4374;DHT22;2201;51.100;6.814;2023-11-21T14:10:28;11.70;98.20
4374;DHT22;2201;51.100;6.814;2023-11-21T14:13:03;11.70;98.20
4374;DHT22;2201;51.100;6.814;2023-11-21T14:15:31;11.60;98.20
4374;DHT22;2201;51.100;6.814;2023-11-21T14:17:58;11.60;98.20
4374;DHT22;2201;51.100;6.814;2023-11-21T14:20:29;11.60;98.20
4374;DHT22;2201;51.100;6.814;2023-11-21T14:22:56;11.60;98.20
4374;DHT22;2201;51.100;6.814;2023-11-21T14:25:23;11.60;98.20
4374;DHT22;2201;51.100;6.814;2023-11-21T14:27:52;11.60;98.20
4374;DHT22;2201;51.100;6.814;2023-11-21T14:30:19;11.50;98.20
4374;DHT22;2201;51.100;6.814;2023-11-21T14:32:48;11.50;98.20
4374;DHT22;2201;51.100;6.814;2023-11-21T14:35:15;11.50;98.20
4374;DHT22;2201;51.100;6.814;2023-11-21T14:37:45;11.50;98.20
4374;DHT22;2201;51.100;6.814;2023-11-21T14:40:12;11.50;98.20
4374;DHT22;2201;51.100;6.814;2023-11-21T14:42:42;11.40;98.20
4374;DHT22;2201;51.100;6.814;2023-11-21T14:45:13;11.40;98.20
4374;DHT22;2201;51.100;6.814;2023-11-21T14:47:45;11.40;98.20
4374;DHT22;2201;51.100;6.814;2023-11-21T14:50:18;11.30;98.20
4374;DHT22;2201;51.100;6.814;2023-11-21T14:53:19;11.20;98.20
4374;DHT22;2201;51.100;6.814;2023-11-21T14:56:07;11.20;98.20
4374;DHT22;2201;51.100;6.814;2023-11-21T14:58:33;11.10;98.20
4374;DHT22;2201;51.100;6.814;2023-11-21T15:01:02;11.00;98.20
4374;DHT22;2201;51.100;6.814;2023-11-21T15:03:29;11.00;98.20
4374;DHT22;2201;51.100;6.814;2023-11-21T15:06:15;11.00;98.20
4374;DHT22;2201;51.100;6.814;2023-11-21T15:08:55;10.90;98.20
4374;DHT22;2201;51.100;6.814;2023-11-21T15:11:43;10.90;98.20
4374;DHT22;2201;51.100;6.814;2023-11-21T15:14:09;10.90;98.20
4374;DHT22;2201;51.100;6.814;2023-11-21T15:16:41;10.80;98.20
4374;DHT22;2201;51.100;6.814;2023-11-21T15:19:12;10.80;98.20
4374;DHT22;2201;51.100;6.814;2023-11-21T15:21:43;10.70;98.20
4374;DHT22;2201;51.100;6.814;2023-11-21T15:24:12;10.70;98.20
4374;DHT22;2201;51.100;6.814;2023-11-21T15:26:39;10.70;98.20
4374;DHT22;2201;51.100;6.814;2023-11-21T15:29:06;10.70;98.20
4374;DHT22;2201;51.100;6.814;2023-11-21T15:31:33;10.60;98.20
4374;DHT22;2201;51.100;6.814;2023-11-21T15:34:01;10.60;98.20
4374;DHT22;2201;51.100;6.814;2023-11-21T15:36:30;10.60;98.20
4374;DHT22;2201;51.100;6.814;2023-11-21T15:38:57;10.60;98.20
4374;DHT22;2201;51.100;6.814;2023-11-21T15:41:26;10.50;98.20
4374;DHT22;2201;51.100;6.814;2023-11-21T15:43:52;10.50;98.20
4374;DHT22;2201;51.100;6.814;2023-11-21T15:46:20;10.50;98.20
4374;DHT22;2201;51.100;6.814;2023-11-21T15:48:47;10.50;98.20
4374;DHT22;2201;51.100;6.814;2023-11-21T15:51:19;10.50;98.20
4374;DHT22;2201;51.100;6.814;2023-11-21T15:53:46;10.50;98.20
4374;DHT22;2201;51.100;6.814;2023-11-21T15:56:13;10.40;98.20
4374;DHT22;2201;51.100;6.814;2023-11-21T15:58:42;10.40;98.20
4374;DHT22;2201;51.100;6.814;2023-11-21T16:01:09;10.40;98.20
4374;DHT22;2201;51.100;6.814;2023-11-21T16:03:38;10.40;98.20
4374;DHT22;2201;51.100;6.814;2023-11-21T16:06:05;10.30;98.20
4374;DHT22;2201;51.100;6.814;2023-11-21T16:08:35;10.30;98.20
4374;DHT22;2201;51.100;6.814;2023-11-21T16:11:04;10.30;98.20
4374;DHT22;2201;51.100;6.814;2023-11-21T16:13:31;10.30;98.20
4374;DHT22;2201;51.100;6.814;2023-11-21T16:16:01;10.30;98.20
4374;DHT22;2201;51.100;6.814;2023-11-21T16:18:28;10.30;98.20
4374;DHT22;2201;51.100;6.814;2023-11-21T16:20:55;10.20;98.20
4374;DHT22;2201;51.100;6.814;2023-11-21T16:23:22;10.20;98.20
4374;DHT22;2201;51.100;6.814;2023-11-21T16:25:51;10.20;98.20